Time;durP1;ratioP1;P1;durP2;ratioP2;P2;SDS_P1;SDS_P2;PMS_P1;PMS_P2;Temp;Humidity;BMP_temperature;BMP_pressure;BME280_temperature;BME280_humidity;BME280_pressure;Samples;Min_cycle;Max_cycle;Signal;HPM_P1;HPM_P2
2022/03/03 00:00:55;;;;;;;;;;;;;;;16.56;67.14;99084.38;2092497;28;19951;-60
2022/03/03 00:01:57;;;;;;;;;;;;;;;16.56;67.37;99081.69;2093419;28;19964;-61
2022/03/03 00:02:57;;;;;;;;;;;;;;;16.55;67.42;99082.72;2092966;28;20027;-59
2022/03/03 00:04:00;;;;;;;;;;;;;;;16.54;67.50;99078.34;2086654;28;19936;-61
2022/03/03 00:05:01;;;;;;;;;;;;;;;16.54;67.47;99083.69;2091536;28;19932;-61
2022/03/03 00:06:03;;;;;;;;;;;;;;;16.53;67.46;99079.38;2092828;28;19925;-58
2022/03/03 00:07:04;;;;;;;;;;;;;;;16.54;67.51;99083.69;2094800;28;19954;-60
2022/03/03 00:08:06;;;;;;;;;;;;;;;16.53;67.48;99079.38;2094769;28;19934;-60
2022/03/03 00:09:06;;;;;;;;;;;;;;;16.52;67.48;99086.56;2094605;28;19967;-60
2022/03/03 00:10:09;;;;;;;;;;;;;;;16.51;67.48;99068.00;2092923;28;20884;-60
2022/03/03 00:11:09;;;;;;;;;;;;;;;16.50;67.52;99077.06;2093746;28;19925;-61
2022/03/03 00:12:11;;;;;;;;;;;;;;;16.49;67.51;99084.25;2090833;28;19978;-61
2022/03/03 00:13:12;;;;;;;;;;;;;;;16.49;67.50;99072.69;2093399;28;19935;-61
2022/03/03 00:14:14;;;;;;;;;;;;;;;16.47;67.49;99072.06;2092784;28;19932;-59
2022/03/03 00:15:14;;;;;;;;;;;;;;;16.48;67.50;99076.38;2092061;28;19985;-61
2022/03/03 00:16:16;;;;;;;;;;;;;;;16.49;67.50;99075.38;2092208;28;19937;-60
2022/03/03 00:17:16;;;;;;;;;;;;;;;16.47;67.44;99070.22;2093550;28;19928;-61
2022/03/03 00:18:18;;;;;;;;;;;;;;;16.46;67.32;99071.19;2093045;28;20742;-61
2022/03/03 00:19:19;;;;;;;;;;;;;;;16.46;67.43;99067.69;2093100;28;19947;-59
2022/03/03 00:20:21;;;;;;;;;;;;;;;16.46;67.61;99065.03;2090621;28;20629;-61
2022/03/03 00:21:21;;;;;;;;;;;;;;;16.45;67.42;99060.69;2093050;28;20512;-60
2022/03/03 00:22:23;;;;;;;;;;;;;;;16.43;67.52;99065.38;2092326;28;19924;-61
2022/03/03 00:23:24;;;;;;;;;;;;;;;16.43;67.40;99060.84;2092980;28;19939;-61
2022/03/03 00:24:25;;;;;;;;;;;;;;;16.43;67.50;99060.03;2092891;28;19929;-61
2022/03/03 00:25:26;;;;;;;;;;;;;;;16.43;67.45;99057.34;2093803;28;20247;-61
2022/03/03 00:26:27;;;;;;;;;;;;;;;16.42;67.62;99058.38;2092135;28;19973;-60
2022/03/03 00:27:28;;;;;;;;;;;;;;;16.41;67.60;99056.69;2092714;28;19944;-60
2022/03/03 00:28:29;;;;;;;;;;;;;;;16.41;67.59;99059.38;2090381;28;20005;-57
2022/03/03 00:29:30;;;;;;;;;;;;;;;16.40;67.62;99055.84;2092490;28;20032;-61
2022/03/03 00:30:31;;;;;;;;;;;;;;;16.39;67.63;99054.22;2092861;28;19925;-60
2022/03/03 00:31:32;;;;;;;;;;;;;;;16.38;67.51;99057.91;2092721;28;20454;-62
2022/03/03 00:32:40;;;;;;;;;;;;;;;16.38;67.64;99051.69;2094331;28;19935;-62
2022/03/03 00:33:40;;;;;;;;;;;;;;;16.37;67.76;99055.38;2091244;28;19971;-62
2022/03/03 00:34:43;;;;;;;;;;;;;;;16.36;67.72;99043.84;2091969;28;19935;-61
2022/03/03 00:35:44;;;;;;;;;;;;;;;16.36;67.76;99049.22;2092922;28;20011;-61
2022/03/03 00:36:45;;;;;;;;;;;;;;;16.36;67.60;99053.75;2093783;28;19932;-61
2022/03/03 00:37:46;;;;;;;;;;;;;;;16.35;67.81;99044.03;2091225;28;20433;-61
2022/03/03 00:38:48;;;;;;;;;;;;;;;16.34;67.62;99045.88;2093390;28;19928;-61
2022/03/03 00:39:48;;;;;;;;;;;;;;;16.33;67.69;99041.53;2091622;28;19932;-61
2022/03/03 00:40:50;;;;;;;;;;;;;;;16.34;67.81;99045.03;2091456;28;20478;-61
2022/03/03 00:41:50;;;;;;;;;;;;;;;16.33;67.95;99043.38;2092416;28;20290;-61
2022/03/03 00:42:52;;;;;;;;;;;;;;;16.32;67.86;99042.53;2094069;28;19928;-61
2022/03/03 00:43:52;;;;;;;;;;;;;;;16.31;67.87;99041.69;2092240;28;19958;-64
2022/03/03 00:44:54;;;;;;;;;;;;;;;16.31;67.91;99040.88;2092331;28;20164;-63
2022/03/03 00:45:54;;;;;;;;;;;;;;;16.31;67.90;99038.19;2090592;28;20329;-62
2022/03/03 00:46:56;;;;;;;;;;;;;;;16.30;67.83;99040.06;2093495;28;19928;-61
2022/03/03 00:47:56;;;;;;;;;;;;;;;16.29;67.92;99041.03;2092686;28;20255;-61
2022/03/03 00:48:58;;;;;;;;;;;;;;;16.29;67.92;99038.38;2093744;28;20422;-61
2022/03/03 00:50:00;;;;;;;;;;;;;;;16.28;67.98;99033.22;2092062;28;20573;-59
2022/03/03 00:51:06;;;;;;;;;;;;;;;16.28;67.95;99035.88;2092364;28;19931;-61
2022/03/03 00:52:07;;;;;;;;;;;;;;;16.27;67.86;99034.22;2092399;28;19924;-61
2022/03/03 00:53:08;;;;;;;;;;;;;;;16.26;67.88;99035.22;2091260;28;19928;-61
2022/03/03 00:54:10;;;;;;;;;;;;;;;16.25;67.84;99034.41;2093012;28;20012;-61
2022/03/03 00:55:10;;;;;;;;;;;;;;;16.25;67.89;99029.03;2093821;28;19933;-61
2022/03/03 00:56:12;;;;;;;;;;;;;;;16.25;67.91;99026.38;2093252;28;20087;-61
2022/03/03 00:57:12;;;;;;;;;;;;;;;16.24;67.87;99030.06;2092747;28;20417;-61
2022/03/03 00:58:14;;;;;;;;;;;;;;;16.24;68.02;99029.22;2092022;28;19970;-61
2022/03/03 00:59:14;;;;;;;;;;;;;;;16.23;67.91;99025.69;2092183;28;20046;-61
2022/03/03 01:00:18;;;;;;;;;;;;;;;16.21;68.08;99022.38;2090254;28;20261;-61
2022/03/03 01:01:19;;;;;;;;;;;;;;;16.22;68.02;99024.06;2092064;28;19924;-61
2022/03/03 01:02:20;;;;;;;;;;;;;;;16.22;67.99;99024.06;2092688;28;20128;-61
2022/03/03 01:03:21;;;;;;;;;;;;;;;16.20;67.92;99020.72;2091499;28;20117;-60
2022/03/03 01:04:22;;;;;;;;;;;;;;;16.20;67.86;99026.06;2088993;28;20002;-62
2022/03/03 01:05:24;;;;;;;;;;;;;;;16.19;67.89;99019.06;2087817;28;20375;-62
2022/03/03 01:06:26;;;;;;;;;;;;;;;16.18;68.04;99017.38;2090287;28;19932;-63
2022/03/03 01:07:27;;;;;;;;;;;;;;;16.17;68.02;99018.41;2092517;28;19981;-61
2022/03/03 01:08:29;;;;;;;;;;;;;;;16.18;68.02;99019.22;2092030;28;20433;-61
2022/03/03 01:09:29;;;;;;;;;;;;;;;16.16;68.02;99015.88;2092928;28;20136;-62
2022/03/03 01:10:31;;;;;;;;;;;;;;;16.17;68.07;99015.72;2091489;28;19928;-62
2022/03/03 01:11:31;;;;;;;;;;;;;;;16.15;68.01;99009.69;2093467;28;20249;-60
2022/03/03 01:12:33;;;;;;;;;;;;;;;16.14;68.22;99013.41;2093499;28;20285;-62
2022/03/03 01:13:34;;;;;;;;;;;;;;;16.14;68.22;99005.38;2092254;28;19937;-62
2022/03/03 01:14:35;;;;;;;;;;;;;;;16.15;68.31;99009.69;2092332;28;19925;-61
2022/03/03 01:15:36;;;;;;;;;;;;;;;16.14;68.28;99005.38;2092893;28;20031;-61
2022/03/03 01:16:37;;;;;;;;;;;;;;;16.12;68.17;99007.38;2094977;28;19932;-59
2022/03/03 01:17:38;;;;;;;;;;;;;;;16.13;68.14;99008.22;2092094;28;20035;-61
2022/03/03 01:18:39;;;;;;;;;;;;;;;16.12;68.14;99010.06;2092154;28;19933;-62
2022/03/03 01:19:40;;;;;;;;;;;;;;;16.12;68.07;99004.72;2094346;28;19928;-62
2022/03/03 01:20:43;;;;;;;;;;;;;;;16.10;68.02;99012.06;2094830;28;20073;-61
2022/03/03 01:21:43;;;;;;;;;;;;;;;16.10;67.84;99006.72;2090968;28;20125;-61
2022/03/03 01:22:45;;;;;;;;;;;;;;;16.11;68.16;99013.75;2096489;28;19934;-60
2022/03/03 01:23:45;;;;;;;;;;;;;;;16.09;68.12;99008.56;2096880;28;19928;-61
2022/03/03 01:24:47;;;;;;;;;;;;;;;16.08;68.11;99006.09;2093412;28;20352;-61
2022/03/03 01:25:47;;;;;;;;;;;;;;;16.08;68.16;99009.59;2092413;28;19950;-60
2022/03/03 01:26:49;;;;;;;;;;;;;;;16.08;68.11;99003.41;2091711;28;20014;-61
2022/03/03 01:27:50;;;;;;;;;;;;;;;16.07;68.15;99001.72;2089703;28;21861;-61
2022/03/03 01:28:51;;;;;;;;;;;;;;;16.07;67.99;99004.41;2092079;28;20186;-59
2022/03/03 01:29:52;;;;;;;;;;;;;;;16.06;68.04;98998.22;2090302;28;20112;-60
2022/03/03 01:30:54;;;;;;;;;;;;;;;16.06;68.18;98997.41;2091557;28;20898;-60
2022/03/03 01:31:54;;;;;;;;;;;;;;;16.06;68.05;98997.41;2091026;28;19928;-59
2022/03/03 01:32:56;;;;;;;;;;;;;;;16.04;67.94;98999.41;2092966;28;20473;-61
2022/03/03 01:33:56;;;;;;;;;;;;;;;16.05;68.11;98995.75;2091811;28;20049;-60
2022/03/03 01:34:58;;;;;;;;;;;;;;;16.05;67.99;98995.75;2092149;28;19932;-61
2022/03/03 01:36:00;;;;;;;;;;;;;;;16.02;67.92;98983.56;2091848;28;20545;-60
2022/03/03 01:37:01;;;;;;;;;;;;;;;16.02;67.99;98994.25;2092230;28;19932;-59
2022/03/03 01:38:02;;;;;;;;;;;;;;;16.01;68.00;98984.53;2090681;28;19928;-59
2022/03/03 01:39:04;;;;;;;;;;;;;;;16.02;67.92;98993.44;2092423;28;19928;-61
2022/03/03 01:40:06;;;;;;;;;;;;;;;16.00;68.02;98988.25;2091847;28;20911;-60
2022/03/03 01:41:08;;;;;;;;;;;;;;;15.99;68.08;98983.91;2093024;28;19925;-60
2022/03/03 01:42:08;;;;;;;;;;;;;;;15.99;68.08;98983.06;2092345;28;19996;-61
2022/03/03 01:43:10;;;;;;;;;;;;;;;15.99;68.10;98988.41;2091751;28;19935;-59
2022/03/03 01:44:11;;;;;;;;;;;;;;;15.98;68.12;98984.09;2091716;28;19924;-59
2022/03/03 01:45:12;;;;;;;;;;;;;;;15.96;68.06;98976.22;2091587;28;19935;-61
2022/03/03 01:46:13;;;;;;;;;;;;;;;15.96;68.15;98981.56;2089244;28;20279;-60
2022/03/03 01:47:18;;;;;;;;;;;;;;;15.95;68.18;98981.75;2091890;28;20402;-60
2022/03/03 01:48:19;;;;;;;;;;;;;;;15.95;68.18;98979.91;2091754;28;20015;-61
2022/03/03 01:49:20;;;;;;;;;;;;;;;15.96;68.29;98975.38;2092460;28;19931;-60
2022/03/03 01:50:21;;;;;;;;;;;;;;;15.94;68.20;98964.88;2090793;28;19944;-59
2022/03/03 01:51:24;;;;;;;;;;;;;;;15.94;68.20;98964.06;2091010;28;19929;-60
2022/03/03 01:52:25;;;;;;;;;;;;;;;15.92;68.31;98966.06;2091985;28;19981;-61
2022/03/03 01:53:26;;;;;;;;;;;;;;;15.92;68.37;98966.91;2092196;28;19924;-59
2022/03/03 01:54:27;;;;;;;;;;;;;;;15.91;68.24;98965.25;2091456;28;20319;-61
2022/03/03 01:55:28;;;;;;;;;;;;;;;15.91;68.40;98967.06;2092806;28;19924;-60
2022/03/03 01:56:29;;;;;;;;;;;;;;;15.90;68.41;98963.56;2089390;28;19932;-60
2022/03/03 01:57:31;;;;;;;;;;;;;;;15.91;68.41;98967.06;2093382;28;19932;-59
2022/03/03 01:58:31;;;;;;;;;;;;;;;15.89;68.44;98961.91;2092094;28;19924;-57
2022/03/03 01:59:33;;;;;;;;;;;;;;;15.89;68.53;98967.25;2088363;28;19933;-60
2022/03/03 02:00:34;;;;;;;;;;;;;;;15.88;68.70;98962.94;2092099;28;20318;-59
2022/03/03 02:01:37;;;;;;;;;;;;;;;15.89;68.47;98961.09;2088131;28;19950;-60
2022/03/03 02:02:38;;;;;;;;;;;;;;;15.87;68.76;98958.56;2091316;28;19928;-59
2022/03/03 02:03:39;;;;;;;;;;;;;;;15.86;68.94;98960.41;2091869;28;19924;-58
2022/03/03 02:04:40;;;;;;;;;;;;;;;15.87;68.94;98961.25;2090904;28;19928;-58
2022/03/03 02:05:41;;;;;;;;;;;;;;;15.85;68.90;98952.56;2091752;28;20349;-60
2022/03/03 02:06:43;;;;;;;;;;;;;;;15.85;68.97;98950.75;2090815;28;20286;-61
2022/03/03 02:07:45;;;;;;;;;;;;;;;15.86;68.95;98952.41;2090566;28;20373;-62
2022/03/03 02:08:45;;;;;;;;;;;;;;;15.85;68.77;98953.41;2088602;28;20260;-61
2022/03/03 02:09:47;;;;;;;;;;;;;;;15.85;69.21;98956.09;2092128;28;20371;-61
2022/03/03 02:10:47;;;;;;;;;;;;;;;15.84;68.98;98953.59;2091750;28;20421;-62
2022/03/03 02:11:49;;;;;;;;;;;;;;;15.84;68.99;98956.25;2089917;28;19935;-62
2022/03/03 02:12:50;;;;;;;;;;;;;;;15.84;68.89;98954.41;2091276;28;19970;-61
2022/03/03 02:13:51;;;;;;;;;;;;;;;15.81;68.97;98949.41;2091920;28;19978;-62
2022/03/03 02:14:52;;;;;;;;;;;;;;;15.81;69.09;98944.06;2092723;28;19978;-60
2022/03/03 02:15:54;;;;;;;;;;;;;;;15.81;68.85;98949.41;2092458;28;20417;-61
2022/03/03 02:16:55;;;;;;;;;;;;;;;15.81;69.07;98951.25;2091864;28;19924;-61
2022/03/03 02:17:56;;;;;;;;;;;;;;;15.80;69.02;98945.09;2090847;28;19932;-61
2022/03/03 02:18:57;;;;;;;;;;;;;;;15.80;68.81;98954.97;2092408;28;19928;-59
2022/03/03 02:19:58;;;;;;;;;;;;;;;15.79;68.94;98943.41;2091968;28;19990;-59
2022/03/03 02:21:01;;;;;;;;;;;;;;;15.79;69.00;98948.75;2090923;28;20195;-60
2022/03/03 02:22:03;;;;;;;;;;;;;;;15.78;68.93;98947.09;2091124;28;19937;-60
2022/03/03 02:23:03;;;;;;;;;;;;;;;15.78;68.97;98946.28;2092515;28;20019;-60
2022/03/03 02:24:07;;;;;;;;;;;;;;;15.78;68.83;98940.94;2089274;28;20005;-60
2022/03/03 02:25:08;;;;;;;;;;;;;;;15.77;68.89;98937.41;2090879;28;19982;-61
2022/03/03 02:26:13;;;;;;;;;;;;;;;15.77;68.79;98937.41;2092192;28;20329;-61
2022/03/03 02:27:13;;;;;;;;;;;;;;;15.77;68.93;98940.09;2091952;28;19924;-57
2022/03/03 02:28:15;;;;;;;;;;;;;;;15.76;68.97;98941.09;2091962;28;19967;-61
2022/03/03 02:29:16;;;;;;;;;;;;;;;15.75;68.91;98934.09;2092132;28;20161;-62
2022/03/03 02:30:18;;;;;;;;;;;;;;;15.74;68.91;98927.09;2090214;28;19931;-60
2022/03/03 02:31:20;;;;;;;;;;;;;;;15.75;69.02;98935.94;2090417;28;19924;-62
2022/03/03 02:32:21;;;;;;;;;;;;;;;15.74;69.04;98927.09;2090216;28;20295;-62
2022/03/03 02:33:22;;;;;;;;;;;;;;;15.75;68.87;98934.09;2092100;28;20374;-61
2022/03/03 02:34:24;;;;;;;;;;;;;;;15.74;69.09;98927.09;2091832;28;19924;-62
2022/03/03 02:35:24;;;;;;;;;;;;;;;15.74;69.17;98926.22;2091713;28;19995;-62
2022/03/03 02:36:28;;;;;;;;;;;;;;;15.73;69.02;98929.94;2091676;28;19932;-62
2022/03/03 02:37:32;;;;;;;;;;;;;;;15.72;69.10;98926.41;2091654;28;20239;-62
2022/03/03 02:38:34;;;;;;;;;;;;;;;15.71;69.07;98926.59;2088853;28;19935;-62
2022/03/03 02:39:35;;;;;;;;;;;;;;;15.72;69.04;98920.25;2092756;28;19924;-62
2022/03/03 02:40:36;;;;;;;;;;;;;;;15.71;68.97;98916.75;2092388;28;19950;-61
2022/03/03 02:41:38;;;;;;;;;;;;;;;15.70;69.15;98912.38;2092174;28;19931;-62
2022/03/03 02:42:38;;;;;;;;;;;;;;;15.69;68.95;98916.09;2091045;28;20079;-59
2022/03/03 02:43:40;;;;;;;;;;;;;;;15.69;68.93;98920.59;2092056;28;20228;-61
2022/03/03 02:44:41;;;;;;;;;;;;;;;15.70;68.94;98922.25;2090425;28;19931;-61
2022/03/03 02:45:42;;;;;;;;;;;;;;;15.69;69.01;98918.75;2092418;28;19932;-62
2022/03/03 02:46:43;;;;;;;;;;;;;;;15.68;69.00;98914.41;2089199;28;19989;-62
2022/03/03 02:47:46;;;;;;;;;;;;;;;15.68;69.20;98919.75;2091460;28;20407;-61
2022/03/03 02:48:46;;;;;;;;;;;;;;;15.68;69.16;98913.53;2091636;28;19925;-62
2022/03/03 02:49:48;;;;;;;;;;;;;;;15.67;68.89;98915.38;2090353;28;20352;-62
2022/03/03 02:50:48;;;;;;;;;;;;;;;15.68;68.81;98921.56;2091157;28;19940;-61
2022/03/03 02:51:51;;;;;;;;;;;;;;;15.67;69.03;98919.91;2090482;28;19932;-61
2022/03/03 02:52:52;;;;;;;;;;;;;;;15.65;68.92;98920.91;2091714;28;20496;-61
2022/03/03 02:53:53;;;;;;;;;;;;;;;15.65;68.79;98912.06;2090564;28;20197;-62
2022/03/03 02:54:54;;;;;;;;;;;;;;;15.64;68.97;98915.75;2090012;28;20462;-63
2022/03/03 02:55:55;;;;;;;;;;;;;;;15.63;69.05;98914.91;2090840;28;19928;-63
2022/03/03 02:58:16;;;;;;;;;;;;;;;15.62;68.89;98918.59;2090018;28;20391;-62
2022/03/03 02:59:16;;;;;;;;;;;;;;;15.62;68.98;98913.25;2089286;28;19928;-61
2022/03/03 03:00:18;;;;;;;;;;;;;;;15.62;68.92;98909.75;2091231;28;20287;-61
2022/03/03 03:01:19;;;;;;;;;;;;;;;15.61;69.00;98908.91;2090184;28;20172;-60
2022/03/03 03:02:20;;;;;;;;;;;;;;;15.60;69.13;98907.25;2090633;28;20027;-60
2022/03/03 03:03:22;;;;;;;;;;;;;;;15.60;69.03;98907.25;2090195;28;19936;-61
2022/03/03 03:04:23;;;;;;;;;;;;;;;15.60;68.91;98907.25;2090030;28;19928;-61
2022/03/03 03:05:24;;;;;;;;;;;;;;;15.59;68.94;98912.78;2090377;28;20436;-61
2022/03/03 03:06:25;;;;;;;;;;;;;;;15.59;68.90;98912.78;2092431;28;19930;-61
2022/03/03 03:07:27;;;;;;;;;;;;;;;15.58;69.02;98917.28;2089329;28;19932;-62
2022/03/03 03:08:28;;;;;;;;;;;;;;;15.58;68.92;98919.13;2091989;28;20394;-61
2022/03/03 03:09:30;;;;;;;;;;;;;;;15.56;68.93;98913.13;2090590;28;19932;-61
2022/03/03 03:10:30;;;;;;;;;;;;;;;15.56;68.88;98913.13;2091674;28;19924;-61
2022/03/03 03:11:32;;;;;;;;;;;;;;;15.58;68.87;98916.47;2090495;28;19924;-60
2022/03/03 03:12:32;;;;;;;;;;;;;;;15.55;68.87;98916.81;2090436;28;19933;-61
2022/03/03 03:13:34;;;;;;;;;;;;;;;15.55;68.75;98911.47;2088209;28;19925;-58
2022/03/03 03:14:34;;;;;;;;;;;;;;;15.54;68.77;98910.63;2093046;28;19924;-62
2022/03/03 03:15:36;;;;;;;;;;;;;;;15.54;68.70;98907.13;2093117;28;19935;-58
2022/03/03 03:16:36;;;;;;;;;;;;;;;15.54;68.83;98912.47;2094487;28;19925;-59
2022/03/03 03:17:38;;;;;;;;;;;;;;;15.53;68.78;98913.47;2094921;28;19936;-59
2022/03/03 03:18:40;;;;;;;;;;;;;;;15.53;68.71;98910.81;2095065;28;20316;-59
2022/03/03 03:19:41;;;;;;;;;;;;;;;15.51;68.81;98905.63;2091393;28;19925;-60
2022/03/03 03:20:42;;;;;;;;;;;;;;;15.52;68.72;98903.81;2092817;28;20109;-59
2022/03/03 03:21:44;;;;;;;;;;;;;;;15.50;68.85;98909.31;2090714;28;19925;-61
2022/03/03 03:22:46;;;;;;;;;;;;;;;15.50;68.97;98903.97;2090586;28;19932;-59
2022/03/03 03:23:47;;;;;;;;;;;;;;;15.50;68.78;98908.50;2093548;28;19928;-60
2022/03/03 03:24:48;;;;;;;;;;;;;;;15.51;69.02;98910.16;2094045;28;19932;-60
2022/03/03 03:25:50;;;;;;;;;;;;;;;15.49;69.04;98909.47;2093487;28;19924;-59
2022/03/03 03:26:50;;;;;;;;;;;;;;;15.50;68.96;98905.81;2092615;28;19929;-61
2022/03/03 03:27:52;;;;;;;;;;;;;;;15.49;68.84;98909.47;2092970;28;19934;-58
2022/03/03 03:28:52;;;;;;;;;;;;;;;15.48;69.13;98902.47;2092148;28;20439;-59
2022/03/03 03:29:54;;;;;;;;;;;;;;;15.47;68.92;98903.50;2091797;28;19934;-61
2022/03/03 03:30:54;;;;;;;;;;;;;;;15.47;68.89;98900.81;2091788;28;19933;-56
2022/03/03 03:31:56;;;;;;;;;;;;;;;15.46;68.99;98907.16;2090014;28;19924;-61
2022/03/03 03:32:56;;;;;;;;;;;;;;;15.46;69.00;98907.16;2093594;28;19960;-60
2022/03/03 03:33:58;;;;;;;;;;;;;;;15.46;68.87;98907.16;2092991;28;20217;-61
2022/03/03 03:34:59;;;;;;;;;;;;;;;15.44;68.95;98898.50;2092965;28;19925;-60
2022/03/03 03:36:00;;;;;;;;;;;;;;;15.45;68.97;98894.81;2093229;28;20055;-58
2022/03/03 03:37:01;;;;;;;;;;;;;;;15.44;68.78;98898.50;2093043;28;19928;-60
2022/03/03 03:38:04;;;;;;;;;;;;;;;15.44;68.92;98898.50;2091744;28;20341;-60
2022/03/03 03:39:05;;;;;;;;;;;;;;;15.42;69.00;98893.31;2093043;28;20394;-61
2022/03/03 03:40:08;;;;;;;;;;;;;;;15.42;69.05;98896.81;2087443;28;19929;-60
2022/03/03 03:41:10;;;;;;;;;;;;;;;15.41;68.81;98895.19;2092911;28;20030;-57
2022/03/03 03:42:11;;;;;;;;;;;;;;;15.42;68.85;98891.47;2091815;28;20331;-61
2022/03/03 03:43:12;;;;;;;;;;;;;;;15.40;69.12;98890.81;2093633;28;19943;-59
2022/03/03 03:44:13;;;;;;;;;;;;;;;15.40;68.88;98896.16;2093606;28;19928;-56
2022/03/03 03:45:15;;;;;;;;;;;;;;;15.40;68.97;98890.81;2093831;28;19935;-58
2022/03/03 03:46:15;;;;;;;;;;;;;;;15.40;68.92;98887.31;2093638;28;19924;-60
2022/03/03 03:47:17;;;;;;;;;;;;;;;15.38;68.75;98886.69;2095064;28;20024;-60
2022/03/03 03:48:18;;;;;;;;;;;;;;;15.38;68.65;98887.50;2091005;28;19929;-60
2022/03/03 03:49:19;;;;;;;;;;;;;;;15.38;68.85;98889.34;2092906;28;19928;-60
2022/03/03 03:50:21;;;;;;;;;;;;;;;15.37;68.89;98888.50;2090239;28;19933;-58
2022/03/03 03:51:21;;;;;;;;;;;;;;;15.36;68.98;98892.19;2092122;28;19932;-59
2022/03/03 03:52:23;;;;;;;;;;;;;;;15.36;68.91;98891.38;2092764;28;19928;-61
2022/03/03 03:53:25;;;;;;;;;;;;;;;15.36;68.85;98886.03;2092083;28;19924;-61
2022/03/03 03:54:26;;;;;;;;;;;;;;;15.35;68.86;98890.53;2091601;28;19928;-56
2022/03/03 03:55:27;;;;;;;;;;;;;;;15.35;69.06;98887.00;2090315;28;20020;-59
2022/03/03 03:56:28;;;;;;;;;;;;;;;15.34;69.12;98891.53;2091559;28;19940;-58
2022/03/03 03:57:29;;;;;;;;;;;;;;;15.34;69.10;98891.53;2091701;28;20302;-58
2022/03/03 03:58:30;;;;;;;;;;;;;;;15.33;69.19;98892.53;2094174;28;19924;-60
2022/03/03 03:59:31;;;;;;;;;;;;;;;15.32;69.26;98890.91;2091872;28;19981;-61
2022/03/03 04:00:32;;;;;;;;;;;;;;;15.32;69.21;98890.91;2093137;28;20447;-60
2022/03/03 04:01:33;;;;;;;;;;;;;;;15.33;69.16;98891.72;2091791;28;20351;-61
2022/03/03 04:02:34;;;;;;;;;;;;;;;15.32;69.11;98890.91;2092390;28;19928;-60
2022/03/03 04:03:36;;;;;;;;;;;;;;;15.31;69.19;98888.38;2091732;28;20039;-60
2022/03/03 04:04:37;;;;;;;;;;;;;;;15.32;69.26;98892.72;2090985;28;19928;-61
2022/03/03 04:05:38;;;;;;;;;;;;;;;15.31;69.28;98878.53;2091917;28;19931;-61
2022/03/03 04:06:39;;;;;;;;;;;;;;;15.31;69.08;98891.06;2092873;28;19928;-60
2022/03/03 04:07:41;;;;;;;;;;;;;;;15.30;69.18;98887.56;2091962;28;20414;-61
2022/03/03 04:08:42;;;;;;;;;;;;;;;15.30;69.05;98889.41;2094528;28;19929;-56
2022/03/03 04:09:44;;;;;;;;;;;;;;;15.28;69.17;98886.91;2090574;28;19955;-60
2022/03/03 04:10:45;;;;;;;;;;;;;;;15.29;69.26;98885.03;2092079;28;19928;-59
2022/03/03 04:11:46;;;;;;;;;;;;;;;15.28;69.20;98886.91;2090526;28;20388;-59
2022/03/03 04:12:47;;;;;;;;;;;;;;;15.26;69.39;98886.22;2093474;28;20394;-59
2022/03/03 04:13:48;;;;;;;;;;;;;;;15.28;69.32;98888.75;2090719;28;19990;-60
2022/03/03 04:14:49;;;;;;;;;;;;;;;15.27;69.25;98887.09;2090689;28;20282;-58
2022/03/03 04:15:50;;;;;;;;;;;;;;;15.25;69.30;98887.25;2092919;28;19938;-60
2022/03/03 04:16:51;;;;;;;;;;;;;;;15.26;69.36;98880.88;2091662;28;20287;-59
2022/03/03 04:17:52;;;;;;;;;;;;;;;15.25;69.07;98884.56;2094196;28;19936;-59
2022/03/03 04:18:53;;;;;;;;;;;;;;;15.25;69.38;98886.41;2093913;28;19924;-60
2022/03/03 04:19:54;;;;;;;;;;;;;;;15.23;69.28;98881.25;2092900;28;19928;-59
2022/03/03 04:20:55;;;;;;;;;;;;;;;15.24;69.26;98882.06;2093028;28;19932;-60
2022/03/03 04:21:56;;;;;;;;;;;;;;;15.24;69.37;98877.56;2093864;28;19924;-59
2022/03/03 04:22:57;;;;;;;;;;;;;;;15.23;69.38;98883.91;2092576;28;20302;-58
2022/03/03 04:24:00;;;;;;;;;;;;;;;15.21;69.22;98888.63;2093205;28;19933;-58
2022/03/03 04:25:00;;;;;;;;;;;;;;;15.22;69.40;98889.44;2091624;28;20003;-59
2022/03/03 04:26:02;;;;;;;;;;;;;;;15.20;69.26;98887.75;2093591;28;20178;-59
2022/03/03 04:27:04;;;;;;;;;;;;;;;15.22;69.06;98882.25;2093410;28;19925;-60
2022/03/03 04:28:05;;;;;;;;;;;;;;;15.20;69.21;98879.75;2093811;28;19990;-59
2022/03/03 04:29:06;;;;;;;;;;;;;;;15.20;69.08;98885.09;2091963;28;19939;-59
2022/03/03 04:30:09;;;;;;;;;;;;;;;15.19;69.24;98879.94;2093322;28;19935;-57
2022/03/03 04:31:10;;;;;;;;;;;;;;;15.20;69.18;98878.91;2093709;28;19977;-60
2022/03/03 04:32:11;;;;;;;;;;;;;;;15.19;69.14;98886.13;2092838;28;20019;-58
2022/03/03 04:33:12;;;;;;;;;;;;;;;15.20;69.28;98878.91;2093653;28;19924;-60
2022/03/03 04:34:13;;;;;;;;;;;;;;;15.20;69.41;98886.94;2091863;28;20313;-59
2022/03/03 04:35:14;;;;;;;;;;;;;;;15.20;69.46;98886.94;2092650;28;20288;-60
2022/03/03 04:36:15;;;;;;;;;;;;;;;15.20;69.63;98878.91;2093597;28;19939;-60
2022/03/03 04:37:16;;;;;;;;;;;;;;;15.21;69.51;98885.94;2092488;28;19931;-58
2022/03/03 04:38:17;;;;;;;;;;;;;;;15.21;69.59;98877.94;2093420;28;20301;-60
2022/03/03 04:39:19;;;;;;;;;;;;;;;15.21;69.77;98877.94;2093145;28;20065;-61
2022/03/03 04:40:21;;;;;;;;;;;;;;;15.22;69.71;98882.25;2092502;28;20016;-61
2022/03/03 04:41:22;;;;;;;;;;;;;;;15.23;69.69;98875.91;2091783;28;20016;-59
2022/03/03 04:42:23;;;;;;;;;;;;;;;15.25;69.78;98875.72;2094053;28;19954;-58
2022/03/03 04:43:24;;;;;;;;;;;;;;;15.24;70.01;98876.72;2093355;28;19935;-60
2022/03/03 04:44:26;;;;;;;;;;;;;;;15.24;70.05;98871.38;2094680;28;20305;-60
2022/03/03 04:45:27;;;;;;;;;;;;;;;15.24;69.93;98866.03;2093684;28;20379;-59
2022/03/03 04:46:28;;;;;;;;;;;;;;;15.26;70.09;98872.03;2093199;28;19978;-60
2022/03/03 04:47:29;;;;;;;;;;;;;;;15.25;70.02;98868.53;2094748;28;20007;-59
2022/03/03 04:48:30;;;;;;;;;;;;;;;15.25;70.11;98867.72;2095296;28;20046;-60
2022/03/03 04:49:30;;;;;;;;;;;;;;;15.25;70.18;98871.22;2090648;28;19935;-61
2022/03/03 04:50:32;;;;;;;;;;;;;;;15.26;70.17;98870.19;2098098;28;19924;-61
2022/03/03 04:51:36;;;;;;;;;;;;;;;15.25;70.09;98868.53;2094853;28;20298;-61
2022/03/03 04:52:38;;;;;;;;;;;;;;;15.27;70.04;98871.06;2093531;28;20367;-58
2022/03/03 04:53:38;;;;;;;;;;;;;;;15.27;69.96;98871.88;2089143;28;19936;-60
2022/03/03 04:54:42;;;;;;;;;;;;;;;15.27;69.92;98877.22;2092087;28;19932;-60
2022/03/03 04:55:42;;;;;;;;;;;;;;;15.27;70.09;98874.56;2091896;28;20302;-57
2022/03/03 04:56:44;;;;;;;;;;;;;;;15.26;70.04;98867.53;2092157;28;19932;-59
2022/03/03 04:57:44;;;;;;;;;;;;;;;15.26;69.98;98870.19;2092244;28;20396;-59
2022/03/03 04:58:46;;;;;;;;;;;;;;;15.27;70.01;98873.72;2092255;28;19939;-61
2022/03/03 04:59:46;;;;;;;;;;;;;;;15.27;69.92;98866.53;2090468;28;20325;-60
2022/03/03 05:00:48;;;;;;;;;;;;;;;15.27;69.94;98871.88;2091568;28;19924;-61
2022/03/03 05:01:49;;;;;;;;;;;;;;;15.28;69.91;98870.84;2091360;28;20012;-61
2022/03/03 05:02:50;;;;;;;;;;;;;;;15.28;69.96;98872.72;2092397;28;19939;-59
2022/03/03 05:03:51;;;;;;;;;;;;;;;15.28;69.95;98865.50;2091255;28;20313;-58
2022/03/03 05:04:52;;;;;;;;;;;;;;;15.27;70.22;98869.22;2091828;28;19960;-60
2022/03/03 05:05:54;;;;;;;;;;;;;;;15.27;70.19;98869.22;2092012;28;20015;-61
2022/03/03 05:06:54;;;;;;;;;;;;;;;15.29;70.28;98869.84;2092635;28;19924;-65
2022/03/03 05:07:56;;;;;;;;;;;;;;;15.32;70.12;98861.50;2091447;28;19932;-60
2022/03/03 05:08:57;;;;;;;;;;;;;;;15.35;70.32;98870.97;2091901;28;19924;-57
2022/03/03 05:10:00;;;;;;;;;;;;;;;15.38;70.48;98868.81;2089232;28;20219;-60
2022/03/03 05:11:02;;;;;;;;;;;;;;;15.45;70.04;98873.44;2091089;28;20019;-59
2022/03/03 05:12:03;;;;;;;;;;;;;;;15.46;70.25;98870.59;2091367;28;19928;-59
2022/03/03 05:13:04;;;;;;;;;;;;;;;15.48;70.47;98868.56;2092422;28;19928;-58
2022/03/03 05:14:05;;;;;;;;;;;;;;;15.51;70.52;98870.03;2092637;28;20010;-60
2022/03/03 05:15:08;;;;;;;;;;;;;;;15.53;70.46;98876.88;2090507;28;19925;-58
2022/03/03 05:16:09;;;;;;;;;;;;;;;15.55;70.44;98874.88;2092519;28;20027;-60
2022/03/03 05:17:11;;;;;;;;;;;;;;;15.59;70.42;98872.66;2093249;28;19940;-60
2022/03/03 05:18:11;;;;;;;;;;;;;;;15.60;70.41;98877.84;2090173;28;19925;-60
2022/03/03 05:19:13;;;;;;;;;;;;;;;15.62;70.51;98869.63;2088891;28;19931;-60
2022/03/03 05:20:15;;;;;;;;;;;;;;;15.64;70.32;98876.47;2092970;28;20556;-60
2022/03/03 05:21:15;;;;;;;;;;;;;;;15.68;70.24;98873.44;2088969;28;20025;-59